Nearby METAR Reports

 

EGNX - East Midlands Airport, United Kingdom
Distance from station: W 5mi, 8km
Updated: 18/07/2024 09:20
Few Clouds
Few Clouds
 Wind from SSW
Wind: SSW 9 mph , 15 km/h
Temperature: 18°C
Dew Point: 13°C
Humidity: 73%
Barometer: 1020 hPa
Clouds: Few Clouds
Visibility: 6 miles , 10 km
Cloud details: Few Clouds 610 m
2024/07/18 08:20 EGNX 180820Z 20008KT 9999 FEW020 18/13 Q1020
EGBB - Birmingham Airport, United Kingdom
Distance from station: SW 34mi, 55km
Updated: 18/07/2024 09:20
Few Clouds
Few Clouds
 Wind from S
Wind: S 8 mph , 13 km/h
Temperature: 19°C
Dew Point: 14°C
Humidity: 73%
Barometer: 1020 hPa
Clouds: Few Clouds
Visibility: 6 miles , 10 km
Cloud details: Few Clouds 488 m
2024/07/18 08:20 EGBB 180820Z 19007KT 150V230 9999 FEW016 19/14 Q1020
 
EGXW - Waddington RAF, United Kingdom
Distance from station: NE 36mi, 57km
Updated: 18/07/2024 09:20
Clear
Clear
 Wind from S
Wind: S 13 mph , 20 km/h
Temperature: 19°C
Dew Point: 12°C
Humidity: 64%
Barometer: 1020 hPa
Summary: Clear
Visibility: greater than 7 miles , 10 km
2024/07/18 08:20 EGXW 180820Z 18011KT CAVOK 19/12 Q1020 NOSIG RMK BLU BLU
EGXC - Coningsby RAF, United Kingdom
Distance from station: NE 46mi, 74km
Updated: 18/07/2024 09:20
Clear
Clear
 Wind from S
Wind: S 13 mph , 20 km/h
Temperature: 20°C
Dew Point: 14°C
Humidity: 69%
Barometer: 1020 hPa
Summary: Clear
Visibility: greater than 7 miles , 10 km
2024/07/18 08:20 EGXC 180820Z 19011KT CAVOK 20/14 Q1020 NOSIG RMK BLU BLU
 
EGPB - Sumburgh, United Kingdom
Distance from station: N 491mi, 791km
Updated: 18/07/2024 09:20
Light rain, Few clouds
Light rain, Few clouds
 Wind from SSE
Wind: SSE 10 mph , 17 km/h
Temperature: 14°C
Dew Point: 12°C
Humidity: 88%
Barometer: 1015 hPa
Summary: Light rain
Clouds: Few Clouds
Visibility: 6 miles , 10 km
Cloud details: Few Clouds 244 m
2024/07/18 08:20 EGPB 180820Z 16009KT 9999 -RA FEW008 14/12 Q1015
EGPO - Stornoway, United Kingdom
Distance from station: NW 561mi, 903km
Updated: 18/07/2024 09:20
Light drizzle, Rain, Mostly cloudy
Light drizzle, Rain, Mostly cloudy
 Wind from S
Wind: S 14 mph , 22 km/h
Temperature: 13°C
Dew Point: 13°C
Humidity: 100%
Barometer: 1012 hPa
Summary: Light drizzle, Rain
Clouds: Mostly cloudy
Visibility: 2 miles , 4 km
Cloud details: Few Clouds 91 m
Partly cloudy 244 m
Mostly cloudy 366 m
2024/07/18 08:20 EGPO 180820Z 17012KT 4000 -DZRA FEW003 SCT008 BKN012 13/13 Q1012